Julian Martinez

Chefscout - Atletico Bucaramanga
3 Apr 2027
Samstag
Verarbeitung

Persönlichkeit

Anpassungsfähigkeit (1) Ehrgeiz (9) Kontroverse (11) Loyalität (16) Druck (10) Professionalität (8) Fairness (2) Temperament (19)

Profil

Trainerstil Demokratisch
Lizenz Kontinentale A
Entschlossenheit 7
Menschenführung 11
Motivation 7
Disziplin 5
Arbeitszufriedenheit
50%
Ermüdung
0%
Rolle Chefscout
Gehalt 67.9K p/W
Vertrag 14.03.2029

Leistung

Verhalten Normal
Trainingseffektivität
13%
Spielerentwicklung
40%
Verletzungsprävention
55%
Taktische Umsetzung
35%

Letzte Ereignisse

Nahm an einer Scouting-Besprechung teil jetzt
Nahm an einer Scouting-Besprechung teil jetzt
Nahm an einer Scouting-Besprechung teil jetzt
Nahm an einer Scouting-Besprechung teil 7T her
Nahm an einer Scouting-Besprechung teil 7T her
Spieler begutachtet 7T her
Spieler begutachtet 7T her
Spieler begutachtet 7T her

Aktuell beobachtet

210
Spieler Verein Status Fähigkeit Vertrauen Beobachtet Zuletzt beobachtet Letzte Stimme
Axel Tape Bayer Leverkusen Aktiv 123 / 133 40% 3 30.03.2027 -
Christ Inao Oulaï Fiorentina Aktiv 129 / 154 40% 4 30.03.2027 -
Elias Baum Eintracht Frankfurt Aktiv 135 / 137 40% 1 30.03.2027 -
Alessio Insignito Spezia Aktiv 102 / 115 40% 2 28.03.2027 -
Ollie Scarles West Ham United Aktiv 129 / 145 40% 2 28.03.2027 -
Alexis Vossah Toulouse FC Aktiv 104 / 125 40% 1 28.03.2027 -
James Dornelly Peterborough United Aktiv 96 / 113 40% 1 27.03.2027 -
Dylan Lawlor Cardiff City Aktiv 108 / 123 40% 1 27.03.2027 -
Martim Cunha Porto Aktiv 90 / 110 40% 1 26.03.2027 -
Lucas Jetten Cambuur Aktiv 113 / 112 40% 1 26.03.2027 -
Obed Vargas Atlético Madrid Aktiv 119 / 130 40% 1 26.03.2027 -
Riley Owen Pergolettese Aktiv 113 / 105 40% 2 22.03.2027 -
Abdul Bukari WAFA Aktiv 91 / 89 40% 1 22.03.2027 -
Caleb Yirenkyi Coventry City Aktiv 136 / 152 40% 3 21.03.2027 -
Rhys Chadwick Peterborough United Aktiv 88 / 110 40% 2 19.03.2027 -
Tiago Freitas Benfica Aktiv 105 / 106 40% 1 19.03.2027 -
Alpha Touré FC Metz Aktiv 102 / 112 40% 1 19.03.2027 -
Juan David Arizala Udinese Aktiv 122 / 133 40% 1 18.03.2027 -
Luka Vušković Brighton Aktiv 153 / 148 40% 1 18.03.2027 -
Sergio Quintero La Equidad Aktiv 136 / 136 40% 2 16.03.2027 -
Felix Appiah WAFA Aktiv 93 / 102 40% 1 16.03.2027 -
Chris Rigg Sunderland Aktiv 131 / 127 40% 2 15.03.2027 -
Gopolang Taunyane Wa All Stars Aktiv 98 / 95 40% 1 15.03.2027 -
Maldini Kacurri Grimsby Town Aktiv 82 / 84 40% 1 15.03.2027 -
Salvador Blopá Sporting CP Aktiv 112 / 112 40% 3 12.03.2027 -
Kyrylo Dihtiar Metalist Aktiv 88 / 116 40% 1 12.03.2027 -
Itumeleng Zungu Free State Stars Aktiv 123 / 107 40% 2 10.03.2027 -
Thiago Helguera Braga Aktiv 117 / 127 40% 2 10.03.2027 -
Rabby Nzingoula West Bromwich Albion Aktiv 122 / 114 40% 3 10.03.2027 -
Bernardo Lima Porto Aktiv 98 / 92 40% 3 09.03.2027 -
Jofre Torrents Ajax Aktiv 114 / 123 40% 2 09.03.2027 -
Mattia Mannini Juve Stabia Aktiv 103 / 132 40% 2 06.03.2027 -
Daniel Banjaqui Benfica Aktiv 117 / 124 40% 2 14.02.2027 -
Daniel Vernattus Metalist Aktiv 89 / 104 40% 1 14.02.2027 -
Roger Hinojo Espanyol Aktiv 108 / 130 40% 2 13.02.2027 -
Albert Bukari Liberty Professionals Aktiv 93 / 94 40% 1 08.02.2027 -
Honest Ahanor Atalanta Aktiv 125 / 149 40% 1 08.02.2027 -
Joel Godoy Sevilla Aktiv 122 / 123 40% 1 07.02.2027 -
Raymond Agyemang Aduana Stars Aktiv 82 / 81 40% 2 06.02.2027 -
Simphiwe Selepe Orlando Pirates Aktiv 104 / 122 40% 1 06.02.2027 -
Matías Pandiella Ludogorets Aktiv 90 / 110 40% 1 06.02.2027 -
Matías Gómez Celta Abgelehnt 126 / 129 40% 2 05.02.2027 Mehr Infos nötig
Surprise Manthosi Polokwane City Aktiv 103 / 102 40% 1 05.02.2027 -
Cemran Dansin Orlando Pirates Aktiv 104 / 108 40% 2 04.02.2027 -
Victor Ehibe Real Bamako Aktiv 83 / 89 40% 1 02.02.2027 -
Hlompho Mokoena SuperSport United Aktiv 106 / 111 40% 1 01.02.2027 -
Jaygo van Ommeren Utrecht Aktiv 95 / 120 40% 1 01.02.2027 -
Thorgan Nainggolan Mouscron Aktiv 106 / 127 40% 1 08.01.2027 -
Filip Taraba Istra 1961 Aktiv 107 / 110 40% 1 08.01.2027 -
Bianneider Tamayo Universidad de Chile Aktiv 104 / 114 40% 1 07.01.2027 -
Pape Diong Westerlo Aktiv 98 / 115 40% 1 06.01.2027 -
Juan Morán Alavés Aktiv 109 / 102 40% 1 06.01.2027 -
Riyad Idrissi Cagliari Aktiv 124 / 125 40% 1 06.01.2027 -
Santiago Fernández Talleres Aktiv 125 / 128 40% 1 05.01.2027 -
Arjan Malić Sturm Graz Aktiv 114 / 134 40% 1 04.01.2027 -
Santiago Rodríguez Gimnasia y Esgrima Aktiv 121 / 111 40% 7 24.12.2026 -
Álex Arce Independiente Rivadavia Abgelehnt 126 / 130 40% 3 24.12.2026 Ablehnen
Juan Fernando Garro Ankaragucu Verhandlung 101 / 96 40% 1 24.12.2026 -
Camilo Durán Bloemfontein Celtic Aktiv 119 / 129 40% 4 23.12.2026 -
Ramiro Ruiz Rodríguez Atlético Tucumán Aktiv 126 / 118 40% 4 23.12.2026 -
Nardin Mulahusejnović Vojvodina Aktiv 122 / 134 40% 1 23.12.2026 -
Iqraam Rayners Mamelodi Sundowns Aktiv 133 / 117 40% 1 22.12.2026 -
Tomás Molina Argentinos Juniors Aktiv 128 / 126 40% 2 21.12.2026 -
Wandile Duba Bidvest Wits Aktiv 115 / 91 40% 1 21.12.2026 -
Salah Mohsen El Masry Aktiv 111 / 105 40% 1 21.12.2026 -
Jonás Acevedo Instituto Aktiv 120 / 114 40% 2 07.12.2026 -
Gerard Deulofeu Slavia Prague Aktiv 121 / 119 40% 1 07.12.2026 -
Andrés Arroyo Fortaleza CEIF Verloren 110 / 119 69% 1 06.12.2026 -
Arkaitz Mariezkurrena Real Sociedad Aktiv 110 / 112 40% 1 30.11.2026 -
Antoine Griezmann Orlando City Aktiv 157 / 142 40% 6 29.11.2026 -
Facundo Suárez Instituto Aktiv 121 / 127 40% 3 29.11.2026 -
Nicolás Contín Gimnasia y Tiro Aktiv 108 / 106 40% 2 29.11.2026 -
Jorge Benítez FCSB Aktiv 99 / 111 40% 4 28.11.2026 -
Keagan Mothiba SuperSport United Aktiv 111 / 105 40% 1 28.11.2026 -
Felipe Fernández Vorskla Aktiv 92 / 106 40% 1 28.11.2026 -
Martín Pino Antalyaspor Aktiv 125 / 127 40% 3 27.11.2026 -
Octavio Bianchi HNK Vukovar 1991 Aktiv 100 / 107 40% 2 25.11.2026 -
Nicolás Cordero Aldosivi Aktiv 122 / 122 40% 5 25.11.2026 -
Jhonatan Candia Barracas Central Aktiv 124 / 127 40% 5 24.11.2026 -
Santiago Solari Racing Club Aktiv 125 / 131 40% 2 24.11.2026 -
Ignacio Russo Tigre Aktiv 124 / 128 40% 2 22.11.2026 -
Dani Gómez Zaragoza Aktiv 111 / 116 40% 1 22.11.2026 -
Talisca Fenerbahce Aktiv 142 / 147 40% 1 22.11.2026 Mehr Infos nötig
Rodrigo Trejo Vorskla Aktiv 82 / 79 40% 1 21.11.2026 -
David Barbona Defensa y Justicia Aktiv 120 / 126 40% 6 19.11.2026 Beobachten
Facundo Krüger Temperley Aktiv 109 / 109 40% 1 19.11.2026 -
Leandro Díaz Atlético Tucumán Aktiv 122 / 118 40% 2 18.11.2026 -
Domi Berlanga Vicenza Aktiv 85 / 107 40% 1 18.11.2026 -
Nicolás Fernández Belgrano Aktiv 129 / 128 40% 3 17.11.2026 -
Alejandro Melo Temperley Aktiv 122 / 108 40% 1 17.11.2026 -
Lucas González Estudiantes Aktiv 106 / 110 40% 2 15.11.2026 -
Alexander Díaz Deportivo Riestra Aktiv 123 / 116 40% 5 12.11.2026 -
Diego Valencia Gornik Leczna Aktiv 111 / 111 40% 1 11.11.2026 -
José Barreto Fehervar Aktiv 115 / 121 40% 1 10.11.2026 -
Facundo Pons San Martín Aktiv 109 / 112 40% 1 10.11.2026 -
Lucas Passerini Belgrano Aktiv 130 / 129 40% 1 09.11.2026 Mehr Infos nötig
Bruno Sepúlveda Banfield Aktiv 124 / 128 40% 3 07.11.2026 -
Ignacio Ramírez Newell's Old Boys Aktiv 118 / 116 40% 1 07.11.2026 -
Favio Cabral Mitre Aktiv 112 / 113 40% 3 06.11.2026 -
Facundo Di Biasi Gimnasia La Plata Aktiv 110 / 128 40% 1 05.11.2026 -
Achraf Bencharki Al Ahly Aktiv 131 / 128 40% 1 03.11.2026 Mehr Infos nötig
Thiago Calone All Boys Aktiv 117 / 118 40% 2 02.11.2026 -
Itumeleng Tau Ajax Cape Town Aktiv 109 / 121 40% 1 02.11.2026 -
Davinchi Getafe Verloren 120 / 123 40% 1 02.11.2026 Mehr Infos nötig
Agustín Obregón River Plate Aktiv 102 / 117 40% 1 02.11.2026 Mehr Infos nötig
Rodin Quiñónes Dinamo Batumi Aktiv 120 / 120 40% 4 30.10.2026 -
Peter Shalulile Mamelodi Sundowns Aktiv 130 / 130 40% 1 30.10.2026 -
Juan Rocca Gimnasia y Tiro Aktiv 105 / 103 40% 2 27.10.2026 -
Alejandro Piedrahita Deportivo Pereira Aktiv 126 / 114 40% 1 27.10.2026 -
Andrey Estupiñán Millonarios Aktiv 128 / 125 40% 2 25.10.2026 -
Enzo González Defensores Aktiv 101 / 99 40% 2 25.10.2026 -
Antony Alonso Deportivo Riestra Aktiv 119 / 124 40% 2 24.10.2026 -
Emiliano Rigoni Belgrano Aktiv 127 / 117 40% 2 23.10.2026 -
Enzo Copetti Rosario Central Aktiv 127 / 119 40% 1 23.10.2026 -
Mauro Valiente Estudiantes Aktiv 110 / 120 40% 1 23.10.2026 -
Marcelo Estigarribia Unión de Santa Fe Aktiv 127 / 125 40% 2 21.10.2026 -
Rodrigo Bogarín Barracas Central Aktiv 121 / 123 40% 1 21.10.2026 -
Edwar López Deportes Tolima Aktiv 124 / 109 40% 1 21.10.2026 -
Leonardo Castro Millonarios Aktiv 116 / 115 40% 1 20.10.2026 -
Juan Cruz de los Santos Nacional Aktiv 130 / 131 40% 2 19.10.2026 -
Agustín Hausch Defensa y Justicia Aktiv 112 / 123 40% 1 19.10.2026 -
Axel Frugone Defensor Sporting Aktiv 115 / 115 40% 1 18.10.2026 -
Stefan Džodić Almería Aktiv 109 / 108 40% 1 18.10.2026 -
Teun Gijselhart Deportivo La Coruña Aktiv 98 / 119 40% 1 17.10.2026 -
Juan Pablo De la Reta Maipú Aktiv 111 / 114 40% 1 17.10.2026 -
Enzo Cardozo Almirante Brown Aktiv 105 / 113 40% 2 14.10.2026 -
Valente Pierani Estudiantes Aktiv 116 / 114 40% 1 14.10.2026 -
Valentín Aguiñagalde Temperley Aktiv 104 / 120 40% 1 14.10.2026 -
Alejo Fernández Kayserispor Aktiv 87 / 99 40% 2 13.10.2026 -
Nahuel Arias San Lorenzo Aktiv 109 / 117 40% 1 13.10.2026 -
Agustín Venezia Iquique Aktiv 109 / 108 40% 3 11.10.2026 -
Marcelo Torres Gimnasia La Plata Aktiv 126 / 123 40% 4 10.10.2026 -
Denis Bouanga Los Angeles Football Club Aktiv 128 / 142 40% 1 08.10.2026 -
Claudio Salto Almagro Aktiv 99 / 105 40% 1 07.10.2026 -
Ezequiel Aguirre Defensores Aktiv 115 / 117 40% 1 07.10.2026 -
Carles Gil New England Revolution Aktiv 138 / 128 40% 1 06.10.2026 -
Kyriani Sabbe Club Brugge Aktiv 108 / 133 40% 1 06.10.2026 -
Lucas Richarte Temperley Aktiv 107 / 107 40% 1 06.10.2026 -
José Pachuca Puebla Aktiv 102 / 109 40% 2 05.10.2026 -
Nahuel Herrera Penarol Aktiv 126 / 119 40% 1 05.10.2026 -
Santiago Cena Veracruz Aktiv 113 / 124 40% 1 05.10.2026 -
Justo Giani Universidad Catolica Aktiv 123 / 114 40% 2 03.10.2026 -
Ángel Sepúlveda Guadalajara Aktiv 131 / 115 40% 3 02.10.2026 -
Jonathan Arteaga Veracruz Aktiv 109 / 135 40% 3 28.09.2026 -
Maximiliano Gómez Nacional Aktiv 126 / 124 40% 1 28.09.2026 -
Agustín De la Cuesta Racing Aktiv 108 / 111 40% 1 28.09.2026 -
Anthony Lozano Santos Laguna Aktiv 117 / 122 40% 5 26.09.2026 -
Franco Fagúndez Estudiantes Aktiv 113 / 111 40% 1 26.09.2026 -
Tomás Fernández Aldosivi Aktiv 124 / 114 40% 1 25.09.2026 -
Michael Barrios Once Caldas Aktiv 128 / 114 40% 1 24.09.2026 -
Lucas Di Yorio Santos Laguna Aktiv 105 / 128 40% 2 23.09.2026 -
Ian Garguez Palestino Aktiv 102 / 116 40% 1 23.09.2026 -
Simón Pinto Palestino Aktiv 97 / 94 40% 1 22.09.2026 -
Emilio Giaccone Unión de Santa Fe Aktiv 99 / 113 40% 1 22.09.2026 -
Brian Montenegro Defensor Sporting Aktiv 122 / 121 40% 1 20.09.2026 -
Francisco Fydriszewski Junior Aktiv 128 / 125 40% 1 20.09.2026 -
Facundo Balatti Danubio Aktiv 90 / 117 40% 1 20.09.2026 -
Clemente Montes Universidad Catolica Aktiv 121 / 127 40% 2 18.09.2026 -
Gustavo Viera Cerro Largo Aktiv 102 / 104 40% 1 18.09.2026 -
Alejo Cruz Juventud Aktiv 125 / 122 40% 1 17.09.2026 -
Leandro Suhr Boston River Aktiv 119 / 124 40% 1 16.09.2026 -
Maximiliano Rodríguez Huachipato Aktiv 120 / 113 40% 1 15.09.2026 -
Federico Anselmo Palestino Aktiv 115 / 113 40% 1 14.09.2026 -
Mourad Tijuana Aktiv 109 / 110 40% 1 13.09.2026 -
Ismael Díaz Leon Aktiv 122 / 118 40% 2 12.09.2026 -
Juan Peñaloza Vancouver Whitecaps Aktiv 121 / 119 40% 1 12.09.2026 -
Gabriel Bravo Westerlo Aktiv 104 / 104 40% 1 11.09.2026 -
Nicolás Orellana Audax Italiano Aktiv 109 / 110 40% 1 11.09.2026 -
Juan Martín Lucero Universidad de Chile Aktiv 120 / 124 40% 3 09.09.2026 -
Dylan Gorosito Boca Juniors Aktiv 103 / 116 40% 1 08.09.2026 -
Gonzalo Escudero Racing Club Aktiv 100 / 109 40% 1 08.09.2026 -
Diego Rosales Guadalajara Aktiv 73 / 99 40% 1 07.09.2026 -
Iker Córdoba Valencia Aktiv 94 / 125 40% 1 07.09.2026 -
Florián Monzón Atlas Aktiv 131 / 113 40% 3 05.09.2026 -
Federico Viñas Toluca Aktiv 126 / 127 40% 3 03.09.2026 -
Guillermo Martínez Pumas UNAM Aktiv 125 / 127 40% 2 03.09.2026 -
Cristian Núñez Huracán Aktiv 118 / 121 40% 1 01.09.2026 -
Felipe Mora San Luis Aktiv 126 / 122 40% 1 01.09.2026 -
Michael Vadulli Audax Italiano Aktiv 103 / 110 40% 2 31.08.2026 -
Kevin Méndez Union La Calera Aktiv 102 / 101 40% 1 27.08.2026 -
Jonatan Torres Cerro Porteno Aktiv 128 / 116 40% 1 25.08.2026 -
Cris Martínez Aktiv 112 / 109 40% 1 25.08.2026 -
Matías Gallegos Antofagasta Aktiv 101 / 108 40% 1 25.08.2026 -
Andrés Vilches Union Espanola Aktiv 99 / 95 40% 1 21.08.2026 -
Paulinho Toluca Aktiv 140 / 129 40% 1 21.08.2026 -
Luis Iberico Sporting Cristal Aktiv 118 / 109 40% 2 20.08.2026 -
Gaspar Gentile Alianza Lima Aktiv 111 / 111 40% 1 20.08.2026 -
Alan Pulido Guadalajara Aktiv 128 / 126 40% 1 18.08.2026 -
Eryc Castillo Alianza Lima Aktiv 116 / 125 40% 2 17.08.2026 -
Taisei Miyashiro Seattle Sounders Aktiv 136 / 131 40% 2 16.08.2026 -
Osnar Noronha Cesar Vallejo Aktiv 112 / 116 40% 1 16.08.2026 -
Ronnie Fernández Palestino Aktiv 104 / 99 40% 1 15.08.2026 -
Marco Bustillo Zamora Aktiv 110 / 104 40% 1 15.08.2026 -
Matías Campos López Union La Calera Aktiv 109 / 110 40% 1 14.08.2026 -
Lionel Altamirano Huachipato Aktiv 108 / 115 40% 1 13.08.2026 -
Brayan Hurtado Antofagasta Aktiv 98 / 104 40% 1 13.08.2026 -
Adolfo Muñoz UTC Aktiv 106 / 120 40% 2 12.08.2026 -
José Alí Meza Deportivo La Guaira Aktiv 103 / 115 40% 2 12.08.2026 -
Alejandro Hohberg Cienciano Aktiv 118 / 110 40% 1 10.08.2026 -
Anthony Uribe Standard Liege Aktiv 115 / 100 40% 1 08.08.2026 -
Gabriel Ávalos Aktiv 117 / 131 40% 1 07.08.2026 -
Diego Rossi Monterrey Aktiv 134 / 128 40% 1 06.08.2026 -
Felipe Faúndez O'Higgins Aktiv 96 / 105 40% 1 05.08.2026 -
Alessandro Guenin Defensa y Justicia Aktiv 83 / 97 40% 1 05.08.2026 -
Michael Hoyos Aktiv 123 / 122 40% 1 04.08.2026 -
Emanuel Coronel Rosario Central Aktiv 132 / 126 40% 1 02.08.2026 -
Matías Melluso Gimnasia La Plata Aktiv 124 / 121 40% 1 02.08.2026 -
Alejandro Gómez Tijuana Aktiv 131 / 130 40% 1 01.08.2026 -
Jorge Morel Cerro Porteno Aktiv 126 / 126 40% 1 01.08.2026 -
André Horta Almería Aktiv 114 / 133 40% 1 01.08.2026 -